sensor_id;sensor_type;location;lat;lon;timestamp;temperature;humidity
12013;DHT22;6065;48.138;16.402;2023-06-22T00:01:10;24.70;99.90
12013;DHT22;6065;48.138;16.402;2023-06-22T00:03:39;24.70;99.90
12013;DHT22;6065;48.138;16.402;2023-06-22T00:06:05;24.60;99.90
12013;DHT22;6065;48.138;16.402;2023-06-22T00:08:32;24.60;99.90
12013;DHT22;6065;48.138;16.402;2023-06-22T00:10:59;24.60;99.90
12013;DHT22;6065;48.138;16.402;2023-06-22T00:13:26;24.60;99.90
12013;DHT22;6065;48.138;16.402;2023-06-22T00:15:52;24.60;99.90
12013;DHT22;6065;48.138;16.402;2023-06-22T00:18:19;24.60;99.90
12013;DHT22;6065;48.138;16.402;2023-06-22T00:20:47;24.50;99.90
12013;DHT22;6065;48.138;16.402;2023-06-22T00:23:14;24.50;99.90
12013;DHT22;6065;48.138;16.402;2023-06-22T00:25:41;24.50;99.90
12013;DHT22;6065;48.138;16.402;2023-06-22T00:28:08;24.50;99.90
12013;DHT22;6065;48.138;16.402;2023-06-22T00:30:35;24.40;99.90
12013;DHT22;6065;48.138;16.402;2023-06-22T00:33:01;24.30;99.90
12013;DHT22;6065;48.138;16.402;2023-06-22T00:35:28;24.30;99.90
12013;DHT22;6065;48.138;16.402;2023-06-22T00:37:56;24.20;99.90
12013;DHT22;6065;48.138;16.402;2023-06-22T00:40:26;24.20;99.90
12013;DHT22;6065;48.138;16.402;2023-06-22T00:42:53;24.20;99.90
12013;DHT22;6065;48.138;16.402;2023-06-22T00:45:20;24.20;99.90
12013;DHT22;6065;48.138;16.402;2023-06-22T00:47:48;24.10;99.90
12013;DHT22;6065;48.138;16.402;2023-06-22T00:50:17;24.20;99.90
12013;DHT22;6065;48.138;16.402;2023-06-22T00:52:46;24.20;99.90
12013;DHT22;6065;48.138;16.402;2023-06-22T00:55:14;24.20;99.90
12013;DHT22;6065;48.138;16.402;2023-06-22T00:57:43;24.20;99.90
12013;DHT22;6065;48.138;16.402;2023-06-22T01:00:10;24.10;99.90
12013;DHT22;6065;48.138;16.402;2023-06-22T01:02:44;24.10;99.90
12013;DHT22;6065;48.138;16.402;2023-06-22T01:05:12;24.10;99.90
12013;DHT22;6065;48.138;16.402;2023-06-22T01:07:42;24.10;99.90
12013;DHT22;6065;48.138;16.402;2023-06-22T01:10:11;24.00;99.90
12013;DHT22;6065;48.138;16.402;2023-06-22T01:12:44;24.00;99.90
12013;DHT22;6065;48.138;16.402;2023-06-22T01:15:13;23.90;99.90
12013;DHT22;6065;48.138;16.402;2023-06-22T01:17:43;23.90;99.90
12013;DHT22;6065;48.138;16.402;2023-06-22T01:20:10;23.90;99.90
12013;DHT22;6065;48.138;16.402;2023-06-22T01:22:43;23.90;99.90
12013;DHT22;6065;48.138;16.402;2023-06-22T01:25:13;23.80;99.90
12013;DHT22;6065;48.138;16.402;2023-06-22T01:27:42;23.80;99.90
12013;DHT22;6065;48.138;16.402;2023-06-22T01:30:15;23.80;99.90
12013;DHT22;6065;48.138;16.402;2023-06-22T01:32:42;23.70;99.90
12013;DHT22;6065;48.138;16.402;2023-06-22T01:35:10;23.70;99.90
12013;DHT22;6065;48.138;16.402;2023-06-22T01:37:37;23.70;99.90
12013;DHT22;6065;48.138;16.402;2023-06-22T01:40:04;23.70;99.90
12013;DHT22;6065;48.138;16.402;2023-06-22T01:42:32;23.60;99.90
12013;DHT22;6065;48.138;16.402;2023-06-22T01:44:59;23.60;99.90
12013;DHT22;6065;48.138;16.402;2023-06-22T01:47:27;23.60;99.90
12013;DHT22;6065;48.138;16.402;2023-06-22T01:49:54;23.60;99.90
12013;DHT22;6065;48.138;16.402;2023-06-22T01:52:21;23.50;99.90
12013;DHT22;6065;48.138;16.402;2023-06-22T01:54:48;23.50;99.90
12013;DHT22;6065;48.138;16.402;2023-06-22T01:57:14;23.50;99.90
12013;DHT22;6065;48.138;16.402;2023-06-22T01:59:44;23.40;99.90
12013;DHT22;6065;48.138;16.402;2023-06-22T02:02:14;23.40;99.90
12013;DHT22;6065;48.138;16.402;2023-06-22T02:04:44;23.50;99.90
12013;DHT22;6065;48.138;16.402;2023-06-22T02:07:13;23.50;99.90
12013;DHT22;6065;48.138;16.402;2023-06-22T02:09:42;23.50;99.90
12013;DHT22;6065;48.138;16.402;2023-06-22T02:12:10;23.50;99.90
12013;DHT22;6065;48.138;16.402;2023-06-22T02:14:37;23.50;99.90
12013;DHT22;6065;48.138;16.402;2023-06-22T02:17:05;23.40;99.90
12013;DHT22;6065;48.138;16.402;2023-06-22T02:19:35;23.40;99.90
12013;DHT22;6065;48.138;16.402;2023-06-22T02:22:04;23.40;99.90
12013;DHT22;6065;48.138;16.402;2023-06-22T02:24:31;23.30;99.90
12013;DHT22;6065;48.138;16.402;2023-06-22T02:26:58;23.30;99.90
12013;DHT22;6065;48.138;16.402;2023-06-22T02:29:25;23.20;99.90
12013;DHT22;6065;48.138;16.402;2023-06-22T02:31:53;23.20;99.90
12013;DHT22;6065;48.138;16.402;2023-06-22T02:34:19;23.10;99.90
12013;DHT22;6065;48.138;16.402;2023-06-22T02:36:46;23.10;99.90
12013;DHT22;6065;48.138;16.402;2023-06-22T02:39:18;23.10;99.90
12013;DHT22;6065;48.138;16.402;2023-06-22T02:41:45;23.10;99.90
12013;DHT22;6065;48.138;16.402;2023-06-22T02:44:11;23.10;99.90
12013;DHT22;6065;48.138;16.402;2023-06-22T02:46:38;23.10;99.90
12013;DHT22;6065;48.138;16.402;2023-06-22T02:49:05;23.10;99.90
12013;DHT22;6065;48.138;16.402;2023-06-22T02:51:32;23.10;99.90
12013;DHT22;6065;48.138;16.402;2023-06-22T02:54:01;23.10;99.90
12013;DHT22;6065;48.138;16.402;2023-06-22T02:56:30;23.10;99.90
12013;DHT22;6065;48.138;16.402;2023-06-22T02:58:56;23.10;99.90
12013;DHT22;6065;48.138;16.402;2023-06-22T03:01:26;23.10;99.90
12013;DHT22;6065;48.138;16.402;2023-06-22T03:03:53;23.00;99.90
12013;DHT22;6065;48.138;16.402;2023-06-22T03:06:20;23.00;99.90
12013;DHT22;6065;48.138;16.402;2023-06-22T03:08:49;23.00;99.90
12013;DHT22;6065;48.138;16.402;2023-06-22T03:11:16;22.90;99.90
12013;DHT22;6065;48.138;16.402;2023-06-22T03:13:44;22.90;99.90
12013;DHT22;6065;48.138;16.402;2023-06-22T03:16:11;22.90;99.90
12013;DHT22;6065;48.138;16.402;2023-06-22T03:18:38;22.80;99.90
12013;DHT22;6065;48.138;16.402;2023-06-22T03:21:05;22.80;99.90
12013;DHT22;6065;48.138;16.402;2023-06-22T03:23:32;22.80;99.90
12013;DHT22;6065;48.138;16.402;2023-06-22T03:25:58;22.70;99.90
12013;DHT22;6065;48.138;16.402;2023-06-22T03:28:25;22.70;99.90
12013;DHT22;6065;48.138;16.402;2023-06-22T03:30:53;22.70;99.90
12013;DHT22;6065;48.138;16.402;2023-06-22T03:33:20;22.60;99.90
12013;DHT22;6065;48.138;16.402;2023-06-22T03:35:47;22.70;99.90
12013;DHT22;6065;48.138;16.402;2023-06-22T03:38:14;22.80;99.90
12013;DHT22;6065;48.138;16.402;2023-06-22T03:40:41;22.80;99.90
12013;DHT22;6065;48.138;16.402;2023-06-22T03:43:07;22.80;99.90
12013;DHT22;6065;48.138;16.402;2023-06-22T03:45:34;22.80;99.90
12013;DHT22;6065;48.138;16.402;2023-06-22T03:48:02;22.80;99.90
12013;DHT22;6065;48.138;16.402;2023-06-22T03:50:29;22.80;99.90
12013;DHT22;6065;48.138;16.402;2023-06-22T03:52:56;22.80;99.90
12013;DHT22;6065;48.138;16.402;2023-06-22T03:55:22;22.90;99.90
12013;DHT22;6065;48.138;16.402;2023-06-22T03:57:49;23.00;99.90
12013;DHT22;6065;48.138;16.402;2023-06-22T04:00:16;22.90;99.90
12013;DHT22;6065;48.138;16.402;2023-06-22T04:02:43;23.00;99.90
12013;DHT22;6065;48.138;16.402;2023-06-22T04:05:11;23.00;99.90
12013;DHT22;6065;48.138;16.402;2023-06-22T04:07:37;23.00;99.90
12013;DHT22;6065;48.138;16.402;2023-06-22T04:10:05;23.00;99.90
12013;DHT22;6065;48.138;16.402;2023-06-22T04:12:32;23.00;99.90
12013;DHT22;6065;48.138;16.402;2023-06-22T04:14:58;23.10;99.90
12013;DHT22;6065;48.138;16.402;2023-06-22T04:17:25;23.00;99.90
12013;DHT22;6065;48.138;16.402;2023-06-22T04:19:52;23.00;99.90
12013;DHT22;6065;48.138;16.402;2023-06-22T04:22:20;23.10;99.90
12013;DHT22;6065;48.138;16.402;2023-06-22T04:24:46;23.10;99.90
12013;DHT22;6065;48.138;16.402;2023-06-22T04:27:13;23.10;99.90
12013;DHT22;6065;48.138;16.402;2023-06-22T04:29:40;23.10;99.90
12013;DHT22;6065;48.138;16.402;2023-06-22T04:32:14;23.20;99.90
12013;DHT22;6065;48.138;16.402;2023-06-22T04:34:40;23.20;99.90
12013;DHT22;6065;48.138;16.402;2023-06-22T04:37:07;23.20;99.90
12013;DHT22;6065;48.138;16.402;2023-06-22T04:39:35;23.30;99.90
12013;DHT22;6065;48.138;16.402;2023-06-22T04:42:02;23.30;99.90
12013;DHT22;6065;48.138;16.402;2023-06-22T04:44:29;23.30;99.90
12013;DHT22;6065;48.138;16.402;2023-06-22T04:46:56;23.30;99.90
12013;DHT22;6065;48.138;16.402;2023-06-22T04:49:25;23.30;99.90
12013;DHT22;6065;48.138;16.402;2023-06-22T04:51:58;23.30;99.90
12013;DHT22;6065;48.138;16.402;2023-06-22T04:54:25;23.30;99.90
12013;DHT22;6065;48.138;16.402;2023-06-22T04:56:53;23.30;99.90
12013;DHT22;6065;48.138;16.402;2023-06-22T04:59:21;23.40;99.90
12013;DHT22;6065;48.138;16.402;2023-06-22T05:01:53;23.40;99.90
12013;DHT22;6065;48.138;16.402;2023-06-22T05:04:21;23.40;99.90
12013;DHT22;6065;48.138;16.402;2023-06-22T05:06:48;23.50;99.90
12013;DHT22;6065;48.138;16.402;2023-06-22T05:09:15;23.50;99.90
12013;DHT22;6065;48.138;16.402;2023-06-22T05:11:42;23.50;99.90
12013;DHT22;6065;48.138;16.402;2023-06-22T05:14:10;23.60;99.90
12013;DHT22;6065;48.138;16.402;2023-06-22T05:16:37;23.60;99.90
12013;DHT22;6065;48.138;16.402;2023-06-22T05:19:04;23.70;99.90
12013;DHT22;6065;48.138;16.402;2023-06-22T05:21:31;23.70;99.90
12013;DHT22;6065;48.138;16.402;2023-06-22T05:23:57;23.70;99.90
12013;DHT22;6065;48.138;16.402;2023-06-22T05:26:25;23.80;99.90
12013;DHT22;6065;48.138;16.402;2023-06-22T05:28:53;23.80;99.90
12013;DHT22;6065;48.138;16.402;2023-06-22T05:31:21;23.80;99.90
12013;DHT22;6065;48.138;16.402;2023-06-22T05:33:48;23.90;99.90
12013;DHT22;6065;48.138;16.402;2023-06-22T05:36:15;23.90;99.90
12013;DHT22;6065;48.138;16.402;2023-06-22T05:38:42;23.90;99.90
12013;DHT22;6065;48.138;16.402;2023-06-22T05:41:08;24.00;99.90
12013;DHT22;6065;48.138;16.402;2023-06-22T05:43:35;24.00;99.90
12013;DHT22;6065;48.138;16.402;2023-06-22T05:46:02;24.00;99.90
12013;DHT22;6065;48.138;16.402;2023-06-22T05:48:30;24.00;99.90
12013;DHT22;6065;48.138;16.402;2023-06-22T05:50:57;24.10;99.90
12013;DHT22;6065;48.138;16.402;2023-06-22T05:53:24;24.00;99.90
12013;DHT22;6065;48.138;16.402;2023-06-22T05:55:50;24.00;99.90
12013;DHT22;6065;48.138;16.402;2023-06-22T05:58:17;24.00;99.90
12013;DHT22;6065;48.138;16.402;2023-06-22T06:00:44;24.00;99.90
12013;DHT22;6065;48.138;16.402;2023-06-22T06:03:12;24.10;99.90
12013;DHT22;6065;48.138;16.402;2023-06-22T06:05:43;24.20;99.90
12013;DHT22;6065;48.138;16.402;2023-06-22T06:08:11;24.20;99.90
12013;DHT22;6065;48.138;16.402;2023-06-22T06:10:38;24.20;99.90
12013;DHT22;6065;48.138;16.402;2023-06-22T06:13:04;24.30;99.90
12013;DHT22;6065;48.138;16.402;2023-06-22T06:15:31;24.30;99.90
12013;DHT22;6065;48.138;16.402;2023-06-22T06:17:58;24.30;99.90
12013;DHT22;6065;48.138;16.402;2023-06-22T06:20:25;24.30;99.90
12013;DHT22;6065;48.138;16.402;2023-06-22T06:22:54;24.30;99.90
12013;DHT22;6065;48.138;16.402;2023-06-22T06:25:21;24.40;99.90
12013;DHT22;6065;48.138;16.402;2023-06-22T06:27:48;24.40;99.90
12013;DHT22;6065;48.138;16.402;2023-06-22T06:30:17;24.50;99.90
12013;DHT22;6065;48.138;16.402;2023-06-22T06:32:45;24.50;99.90
12013;DHT22;6065;48.138;16.402;2023-06-22T06:35:12;24.50;99.90
12013;DHT22;6065;48.138;16.402;2023-06-22T06:37:39;24.60;99.90
12013;DHT22;6065;48.138;16.402;2023-06-22T06:40:08;24.70;99.90
12013;DHT22;6065;48.138;16.402;2023-06-22T06:42:35;24.80;99.90
12013;DHT22;6065;48.138;16.402;2023-06-22T06:45:03;24.80;99.90
12013;DHT22;6065;48.138;16.402;2023-06-22T06:47:30;24.80;99.90
12013;DHT22;6065;48.138;16.402;2023-06-22T06:49:57;24.80;99.90
12013;DHT22;6065;48.138;16.402;2023-06-22T06:52:23;24.90;99.90
12013;DHT22;6065;48.138;16.402;2023-06-22T06:54:50;25.00;99.90
12013;DHT22;6065;48.138;16.402;2023-06-22T06:57:19;25.10;99.90
12013;DHT22;6065;48.138;16.402;2023-06-22T06:59:47;25.10;99.90
12013;DHT22;6065;48.138;16.402;2023-06-22T07:02:14;25.10;99.90
12013;DHT22;6065;48.138;16.402;2023-06-22T07:04:41;25.10;99.90
12013;DHT22;6065;48.138;16.402;2023-06-22T07:07:08;25.20;99.90
12013;DHT22;6065;48.138;16.402;2023-06-22T07:09:34;25.20;99.90
12013;DHT22;6065;48.138;16.402;2023-06-22T07:12:01;25.30;99.90
12013;DHT22;6065;48.138;16.402;2023-06-22T07:14:29;25.30;99.90
12013;DHT22;6065;48.138;16.402;2023-06-22T07:16:57;25.40;99.90
12013;DHT22;6065;48.138;16.402;2023-06-22T07:19:26;25.50;99.90
12013;DHT22;6065;48.138;16.402;2023-06-22T07:21:55;25.50;99.90
12013;DHT22;6065;48.138;16.402;2023-06-22T07:24:22;25.50;99.90
12013;DHT22;6065;48.138;16.402;2023-06-22T07:26:49;25.60;99.90
12013;DHT22;6065;48.138;16.402;2023-06-22T07:29:16;25.60;99.90
12013;DHT22;6065;48.138;16.402;2023-06-22T07:31:44;25.70;99.90
12013;DHT22;6065;48.138;16.402;2023-06-22T07:34:11;25.70;99.90
12013;DHT22;6065;48.138;16.402;2023-06-22T07:36:38;25.80;99.90
12013;DHT22;6065;48.138;16.402;2023-06-22T07:39:04;25.80;99.90
12013;DHT22;6065;48.138;16.402;2023-06-22T07:41:32;25.90;99.90
12013;DHT22;6065;48.138;16.402;2023-06-22T07:43:59;25.90;99.90
12013;DHT22;6065;48.138;16.402;2023-06-22T07:46:25;25.90;99.90
12013;DHT22;6065;48.138;16.402;2023-06-22T07:48:54;26.00;99.90
12013;DHT22;6065;48.138;16.402;2023-06-22T07:51:20;26.00;99.90
12013;DHT22;6065;48.138;16.402;2023-06-22T07:53:47;26.10;99.90
12013;DHT22;6065;48.138;16.402;2023-06-22T07:56:14;26.20;99.90
12013;DHT22;6065;48.138;16.402;2023-06-22T07:58:45;26.20;99.90
12013;DHT22;6065;48.138;16.402;2023-06-22T08:01:11;26.20;99.90
12013;DHT22;6065;48.138;16.402;2023-06-22T08:03:38;26.20;99.90
12013;DHT22;6065;48.138;16.402;2023-06-22T08:06:07;26.30;99.90
12013;DHT22;6065;48.138;16.402;2023-06-22T08:08:34;26.30;99.90
12013;DHT22;6065;48.138;16.402;2023-06-22T08:11:01;26.40;99.90
12013;DHT22;6065;48.138;16.402;2023-06-22T08:13:27;26.50;99.90
12013;DHT22;6065;48.138;16.402;2023-06-22T08:15:55;26.50;99.90
12013;DHT22;6065;48.138;16.402;2023-06-22T08:18:22;26.60;99.90
12013;DHT22;6065;48.138;16.402;2023-06-22T08:20:49;26.70;99.90
12013;DHT22;6065;48.138;16.402;2023-06-22T08:23:17;26.70;99.90
12013;DHT22;6065;48.138;16.402;2023-06-22T08:25:44;26.80;99.90
12013;DHT22;6065;48.138;16.402;2023-06-22T08:28:11;26.90;99.90
12013;DHT22;6065;48.138;16.402;2023-06-22T08:30:38;27.00;99.90
12013;DHT22;6065;48.138;16.402;2023-06-22T08:33:05;27.00;99.90
12013;DHT22;6065;48.138;16.402;2023-06-22T08:35:31;27.00;99.90
12013;DHT22;6065;48.138;16.402;2023-06-22T08:37:58;27.00;99.90
12013;DHT22;6065;48.138;16.402;2023-06-22T08:40:26;27.10;99.90
12013;DHT22;6065;48.138;16.402;2023-06-22T08:42:54;27.10;99.90
12013;DHT22;6065;48.138;16.402;2023-06-22T08:45:21;27.20;99.90
12013;DHT22;6065;48.138;16.402;2023-06-22T08:47:48;27.30;99.90
12013;DHT22;6065;48.138;16.402;2023-06-22T08:50:14;27.30;99.90
12013;DHT22;6065;48.138;16.402;2023-06-22T08:52:41;27.40;99.90
12013;DHT22;6065;48.138;16.402;2023-06-22T08:55:08;27.40;99.90
12013;DHT22;6065;48.138;16.402;2023-06-22T08:57:37;27.60;99.90
12013;DHT22;6065;48.138;16.402;2023-06-22T09:00:05;27.60;99.90
12013;DHT22;6065;48.138;16.402;2023-06-22T09:02:33;27.70;99.90
12013;DHT22;6065;48.138;16.402;2023-06-22T09:05:03;27.80;99.90
12013;DHT22;6065;48.138;16.402;2023-06-22T09:07:30;27.80;99.90
12013;DHT22;6065;48.138;16.402;2023-06-22T09:09:56;27.90;99.90
12013;DHT22;6065;48.138;16.402;2023-06-22T09:12:23;28.00;99.90
12013;DHT22;6065;48.138;16.402;2023-06-22T09:14:53;28.00;99.90
12013;DHT22;6065;48.138;16.402;2023-06-22T09:17:20;28.10;99.90
12013;DHT22;6065;48.138;16.402;2023-06-22T09:19:47;28.10;99.90
12013;DHT22;6065;48.138;16.402;2023-06-22T09:22:14;28.20;99.90
12013;DHT22;6065;48.138;16.402;2023-06-22T09:24:40;28.20;99.90
12013;DHT22;6065;48.138;16.402;2023-06-22T09:27:07;28.30;99.90
12013;DHT22;6065;48.138;16.402;2023-06-22T09:29:34;28.30;99.90
12013;DHT22;6065;48.138;16.402;2023-06-22T09:32:02;28.30;99.90
12013;DHT22;6065;48.138;16.402;2023-06-22T09:34:29;28.30;99.90
12013;DHT22;6065;48.138;16.402;2023-06-22T09:36:56;28.40;99.90
12013;DHT22;6065;48.138;16.402;2023-06-22T09:39:25;28.40;99.90
12013;DHT22;6065;48.138;16.402;2023-06-22T09:41:52;28.50;99.90
12013;DHT22;6065;48.138;16.402;2023-06-22T09:44:19;28.60;99.90
12013;DHT22;6065;48.138;16.402;2023-06-22T09:46:46;28.60;99.90
12013;DHT22;6065;48.138;16.402;2023-06-22T09:49:14;28.60;99.90
12013;DHT22;6065;48.138;16.402;2023-06-22T09:51:40;28.70;99.90
12013;DHT22;6065;48.138;16.402;2023-06-22T09:54:07;28.80;99.90
12013;DHT22;6065;48.138;16.402;2023-06-22T09:56:34;28.80;99.90
12013;DHT22;6065;48.138;16.402;2023-06-22T09:59:03;28.90;99.90
12013;DHT22;6065;48.138;16.402;2023-06-22T10:01:29;29.00;99.90
12013;DHT22;6065;48.138;16.402;2023-06-22T10:03:56;29.00;99.90
12013;DHT22;6065;48.138;16.402;2023-06-22T10:06:25;29.10;99.90
12013;DHT22;6065;48.138;16.402;2023-06-22T10:08:51;29.20;99.90
12013;DHT22;6065;48.138;16.402;2023-06-22T10:11:18;29.20;99.90
12013;DHT22;6065;48.138;16.402;2023-06-22T10:13:45;29.20;99.10
12013;DHT22;6065;48.138;16.402;2023-06-22T10:16:12;29.30;99.80
12013;DHT22;6065;48.138;16.402;2023-06-22T10:18:38;29.40;99.10
12013;DHT22;6065;48.138;16.402;2023-06-22T10:21:05;29.40;98.30
12013;DHT22;6065;48.138;16.402;2023-06-22T10:23:33;29.50;99.10
12013;DHT22;6065;48.138;16.402;2023-06-22T10:26:00;29.50;98.60
12013;DHT22;6065;48.138;16.402;2023-06-22T10:28:26;29.60;98.50
12013;DHT22;6065;48.138;16.402;2023-06-22T10:30:53;29.60;98.20
12013;DHT22;6065;48.138;16.402;2023-06-22T10:33:20;29.70;98.40
12013;DHT22;6065;48.138;16.402;2023-06-22T10:35:47;29.80;98.20
12013;DHT22;6065;48.138;16.402;2023-06-22T10:38:14;29.80;98.10
12013;DHT22;6065;48.138;16.402;2023-06-22T10:40:42;29.90;98.40
12013;DHT22;6065;48.138;16.402;2023-06-22T10:43:09;29.90;97.80
12013;DHT22;6065;48.138;16.402;2023-06-22T10:45:35;30.00;97.70
12013;DHT22;6065;48.138;16.402;2023-06-22T10:48:02;30.00;98.10
12013;DHT22;6065;48.138;16.402;2023-06-22T10:50:29;30.00;97.40
12013;DHT22;6065;48.138;16.402;2023-06-22T10:52:56;30.10;97.70
12013;DHT22;6065;48.138;16.402;2023-06-22T10:55:23;30.10;97.80
12013;DHT22;6065;48.138;16.402;2023-06-22T10:57:51;30.10;97.20
12013;DHT22;6065;48.138;16.402;2023-06-22T11:00:18;30.20;97.60
12013;DHT22;6065;48.138;16.402;2023-06-22T11:02:44;30.20;98.10
12013;DHT22;6065;48.138;16.402;2023-06-22T11:05:11;30.30;97.40
12013;DHT22;6065;48.138;16.402;2023-06-22T11:07:38;30.30;97.80
12013;DHT22;6065;48.138;16.402;2023-06-22T11:10:07;30.40;97.80
12013;DHT22;6065;48.138;16.402;2023-06-22T11:12:35;30.30;97.70
12013;DHT22;6065;48.138;16.402;2023-06-22T11:15:03;30.50;97.50
12013;DHT22;6065;48.138;16.402;2023-06-22T11:17:30;30.50;97.60
12013;DHT22;6065;48.138;16.402;2023-06-22T11:19:57;30.60;97.40
12013;DHT22;6065;48.138;16.402;2023-06-22T11:22:25;30.70;97.80
12013;DHT22;6065;48.138;16.402;2023-06-22T11:24:52;30.70;98.50
12013;DHT22;6065;48.138;16.402;2023-06-22T11:27:19;30.80;97.80
12013;DHT22;6065;48.138;16.402;2023-06-22T11:29:46;30.80;97.40
12013;DHT22;6065;48.138;16.402;2023-06-22T11:32:14;30.80;98.20
12013;DHT22;6065;48.138;16.402;2023-06-22T11:34:40;30.90;98.00
12013;DHT22;6065;48.138;16.402;2023-06-22T11:37:07;31.00;98.10
12013;DHT22;6065;48.138;16.402;2023-06-22T11:39:34;31.00;97.40
12013;DHT22;6065;48.138;16.402;2023-06-22T11:42:00;31.00;97.70
12013;DHT22;6065;48.138;16.402;2023-06-22T11:44:27;31.10;97.80
12013;DHT22;6065;48.138;16.402;2023-06-22T11:46:54;31.20;97.90
12013;DHT22;6065;48.138;16.402;2023-06-22T11:49:22;31.30;97.20
12013;DHT22;6065;48.138;16.402;2023-06-22T11:51:49;31.30;96.80
12013;DHT22;6065;48.138;16.402;2023-06-22T11:54:15;31.30;97.20
12013;DHT22;6065;48.138;16.402;2023-06-22T11:56:42;31.30;97.80
12013;DHT22;6065;48.138;16.402;2023-06-22T11:59:09;31.40;97.40
12013;DHT22;6065;48.138;16.402;2023-06-22T12:01:35;31.40;97.20
12013;DHT22;6065;48.138;16.402;2023-06-22T12:04:02;31.40;97.00
12013;DHT22;6065;48.138;16.402;2023-06-22T12:06:32;31.50;96.80
12013;DHT22;6065;48.138;16.402;2023-06-22T12:09:00;31.50;96.80
12013;DHT22;6065;48.138;16.402;2023-06-22T12:11:27;31.50;97.10
12013;DHT22;6065;48.138;16.402;2023-06-22T12:13:54;31.50;96.80
12013;DHT22;6065;48.138;16.402;2023-06-22T12:16:21;31.50;96.60
12013;DHT22;6065;48.138;16.402;2023-06-22T12:18:49;31.60;96.20
12013;DHT22;6065;48.138;16.402;2023-06-22T12:21:16;31.60;96.70
12013;DHT22;6065;48.138;16.402;2023-06-22T12:23:44;31.70;96.00
12013;DHT22;6065;48.138;16.402;2023-06-22T12:26:11;31.70;96.00
12013;DHT22;6065;48.138;16.402;2023-06-22T12:28:37;31.70;95.30
12013;DHT22;6065;48.138;16.402;2023-06-22T12:31:04;31.70;95.30
12013;DHT22;6065;48.138;16.402;2023-06-22T12:33:31;31.80;95.90
12013;DHT22;6065;48.138;16.402;2023-06-22T12:35:58;31.80;95.40
12013;DHT22;6065;48.138;16.402;2023-06-22T12:38:24;31.90;95.40
12013;DHT22;6065;48.138;16.402;2023-06-22T12:40:53;31.90;95.80
12013;DHT22;6065;48.138;16.402;2023-06-22T12:43:19;32.00;95.60
12013;DHT22;6065;48.138;16.402;2023-06-22T12:45:46;32.00;95.30
12013;DHT22;6065;48.138;16.402;2023-06-22T12:48:13;32.00;95.00
12013;DHT22;6065;48.138;16.402;2023-06-22T12:50:40;32.10;95.50
12013;DHT22;6065;48.138;16.402;2023-06-22T12:53:06;32.10;95.10
12013;DHT22;6065;48.138;16.402;2023-06-22T12:55:33;32.10;95.30
12013;DHT22;6065;48.138;16.402;2023-06-22T12:58:01;32.10;95.20
12013;DHT22;6065;48.138;16.402;2023-06-22T13:00:28;32.10;95.30
12013;DHT22;6065;48.138;16.402;2023-06-22T13:02:55;32.20;95.70
12013;DHT22;6065;48.138;16.402;2023-06-22T13:05:21;32.20;95.50
12013;DHT22;6065;48.138;16.402;2023-06-22T13:07:48;32.20;94.90
12013;DHT22;6065;48.138;16.402;2023-06-22T13:10:15;32.30;95.00
12013;DHT22;6065;48.138;16.402;2023-06-22T13:12:41;32.30;94.40
12013;DHT22;6065;48.138;16.402;2023-06-22T13:15:10;32.30;94.90
12013;DHT22;6065;48.138;16.402;2023-06-22T13:17:36;32.40;94.50
12013;DHT22;6065;48.138;16.402;2023-06-22T13:20:03;32.40;94.40
12013;DHT22;6065;48.138;16.402;2023-06-22T13:22:31;32.40;94.20
12013;DHT22;6065;48.138;16.402;2023-06-22T13:24:58;32.50;94.10
12013;DHT22;6065;48.138;16.402;2023-06-22T13:27:25;32.50;94.10
12013;DHT22;6065;48.138;16.402;2023-06-22T13:29:52;32.50;94.70
12013;DHT22;6065;48.138;16.402;2023-06-22T13:32:20;32.50;94.80
12013;DHT22;6065;48.138;16.402;2023-06-22T13:34:47;32.50;94.70
12013;DHT22;6065;48.138;16.402;2023-06-22T13:37:14;32.50;94.70
12013;DHT22;6065;48.138;16.402;2023-06-22T13:39:41;32.50;95.00
12013;DHT22;6065;48.138;16.402;2023-06-22T13:42:07;32.60;94.90
12013;DHT22;6065;48.138;16.402;2023-06-22T13:44:34;32.60;95.40
12013;DHT22;6065;48.138;16.402;2023-06-22T13:47:01;32.60;94.90
12013;DHT22;6065;48.138;16.402;2023-06-22T13:49:29;32.60;94.60
12013;DHT22;6065;48.138;16.402;2023-06-22T13:51:56;32.60;94.90
12013;DHT22;6065;48.138;16.402;2023-06-22T13:54:23;32.60;94.70
12013;DHT22;6065;48.138;16.402;2023-06-22T13:56:49;32.60;95.00
12013;DHT22;6065;48.138;16.402;2023-06-22T13:59:16;32.60;94.70
12013;DHT22;6065;48.138;16.402;2023-06-22T14:01:43;32.60;94.60
12013;DHT22;6065;48.138;16.402;2023-06-22T14:04:10;32.60;95.10
12013;DHT22;6065;48.138;16.402;2023-06-22T14:06:38;32.60;95.00
12013;DHT22;6065;48.138;16.402;2023-06-22T14:09:04;32.60;94.80
12013;DHT22;6065;48.138;16.402;2023-06-22T14:11:32;32.50;94.90
12013;DHT22;6065;48.138;16.402;2023-06-22T14:13:59;32.60;94.70
12013;DHT22;6065;48.138;16.402;2023-06-22T14:16:25;32.60;95.10
12013;DHT22;6065;48.138;16.402;2023-06-22T14:18:52;32.60;95.80
12013;DHT22;6065;48.138;16.402;2023-06-22T14:21:19;32.60;95.50
12013;DHT22;6065;48.138;16.402;2023-06-22T14:23:47;32.60;95.10
12013;DHT22;6065;48.138;16.402;2023-06-22T14:26:14;32.60;95.70
12013;DHT22;6065;48.138;16.402;2023-06-22T14:28:43;32.50;95.50
12013;DHT22;6065;48.138;16.402;2023-06-22T14:31:14;32.50;95.40
12013;DHT22;6065;48.138;16.402;2023-06-22T14:33:40;32.50;95.70
12013;DHT22;6065;48.138;16.402;2023-06-22T14:36:07;32.60;95.50
12013;DHT22;6065;48.138;16.402;2023-06-22T14:38:34;32.60;95.40
12013;DHT22;6065;48.138;16.402;2023-06-22T14:41:02;32.70;95.30
12013;DHT22;6065;48.138;16.402;2023-06-22T14:43:29;32.70;95.10
12013;DHT22;6065;48.138;16.402;2023-06-22T14:45:55;32.70;95.30
12013;DHT22;6065;48.138;16.402;2023-06-22T14:48:22;32.70;95.20
12013;DHT22;6065;48.138;16.402;2023-06-22T14:50:49;32.70;95.30
12013;DHT22;6065;48.138;16.402;2023-06-22T14:53:15;32.70;95.20
12013;DHT22;6065;48.138;16.402;2023-06-22T14:55:42;32.70;95.20
12013;DHT22;6065;48.138;16.402;2023-06-22T14:58:10;32.70;95.30
12013;DHT22;6065;48.138;16.402;2023-06-22T15:00:37;32.70;95.20
12013;DHT22;6065;48.138;16.402;2023-06-22T15:03:04;32.60;95.30
12013;DHT22;6065;48.138;16.402;2023-06-22T15:05:33;32.60;95.40
12013;DHT22;6065;48.138;16.402;2023-06-22T15:07:59;32.60;95.60
12013;DHT22;6065;48.138;16.402;2023-06-22T15:10:26;32.50;95.60
12013;DHT22;6065;48.138;16.402;2023-06-22T15:12:53;32.50;95.80
12013;DHT22;6065;48.138;16.402;2023-06-22T15:15:21;32.40;96.10
12013;DHT22;6065;48.138;16.402;2023-06-22T15:17:47;32.30;96.00
12013;DHT22;6065;48.138;16.402;2023-06-22T15:20:14;32.30;96.30
12013;DHT22;6065;48.138;16.402;2023-06-22T15:22:41;32.30;96.30
12013;DHT22;6065;48.138;16.402;2023-06-22T15:25:08;32.30;96.30
12013;DHT22;6065;48.138;16.402;2023-06-22T15:27:35;32.30;96.80
12013;DHT22;6065;48.138;16.402;2023-06-22T15:30:02;32.30;96.60